sensor_id;sensor_type;location;lat;lon;timestamp;temperature;humidity
24730;DHT22;12832;52.392;13.066;2023-09-19T00:00:21;28.50;50.30
24730;DHT22;12832;52.392;13.066;2023-09-19T00:02:55;28.50;50.30
24730;DHT22;12832;52.392;13.066;2023-09-19T00:05:29;28.40;50.20
24730;DHT22;12832;52.392;13.066;2023-09-19T00:07:57;28.40;50.20
24730;DHT22;12832;52.392;13.066;2023-09-19T00:10:27;28.40;50.20
24730;DHT22;12832;52.392;13.066;2023-09-19T00:12:59;28.40;50.20
24730;DHT22;12832;52.392;13.066;2023-09-19T00:15:27;28.50;50.30
24730;DHT22;12832;52.392;13.066;2023-09-19T00:17:56;28.50;50.30
24730;DHT22;12832;52.392;13.066;2023-09-19T00:20:23;28.40;50.20
24730;DHT22;12832;52.392;13.066;2023-09-19T00:22:50;28.50;50.20
24730;DHT22;12832;52.392;13.066;2023-09-19T00:25:20;28.40;50.20
24730;DHT22;12832;52.392;13.066;2023-09-19T00:27:47;28.40;50.20
24730;DHT22;12832;52.392;13.066;2023-09-19T00:30:17;28.40;50.20
24730;DHT22;12832;52.392;13.066;2023-09-19T00:32:48;28.50;50.20
24730;DHT22;12832;52.392;13.066;2023-09-19T00:35:14;28.50;50.20
24730;DHT22;12832;52.392;13.066;2023-09-19T00:37:41;28.50;50.20
24730;DHT22;12832;52.392;13.066;2023-09-19T00:40:09;28.50;50.20
24730;DHT22;12832;52.392;13.066;2023-09-19T00:42:39;28.50;50.20
24730;DHT22;12832;52.392;13.066;2023-09-19T00:45:08;28.50;50.80
24730;DHT22;12832;52.392;13.066;2023-09-19T00:47:40;28.40;50.10
24730;DHT22;12832;52.392;13.066;2023-09-19T00:50:09;28.50;50.20
24730;DHT22;12832;52.392;13.066;2023-09-19T00:52:37;28.40;50.10
24730;DHT22;12832;52.392;13.066;2023-09-19T00:55:08;28.50;50.20
24730;DHT22;12832;52.392;13.066;2023-09-19T00:57:36;28.50;50.20
24730;DHT22;12832;52.392;13.066;2023-09-19T01:00:05;28.50;50.20
24730;DHT22;12832;52.392;13.066;2023-09-19T01:02:34;28.50;50.20
24730;DHT22;12832;52.392;13.066;2023-09-19T01:05:01;28.50;50.20
24730;DHT22;12832;52.392;13.066;2023-09-19T01:07:31;28.40;50.10
24730;DHT22;12832;52.392;13.066;2023-09-19T01:10:00;28.50;50.20
24730;DHT22;12832;52.392;13.066;2023-09-19T01:12:36;28.50;50.20
24730;DHT22;12832;52.392;13.066;2023-09-19T01:15:15;28.50;50.20
24730;DHT22;12832;52.392;13.066;2023-09-19T01:17:51;28.50;50.20
24730;DHT22;12832;52.392;13.066;2023-09-19T01:23:13;28.50;50.20
24730;DHT22;12832;52.392;13.066;2023-09-19T01:28:52;28.50;50.10
24730;DHT22;12832;52.392;13.066;2023-09-19T01:31:24;28.50;50.20
24730;DHT22;12832;52.392;13.066;2023-09-19T01:33:55;28.50;50.20
24730;DHT22;12832;52.392;13.066;2023-09-19T01:36:33;28.40;50.00
24730;DHT22;12832;52.392;13.066;2023-09-19T01:39:04;28.50;50.20
24730;DHT22;12832;52.392;13.066;2023-09-19T01:42:05;28.50;50.20
24730;DHT22;12832;52.392;13.066;2023-09-19T01:44:44;28.50;50.10
24730;DHT22;12832;52.392;13.066;2023-09-19T01:47:35;28.50;50.10
24730;DHT22;12832;52.392;13.066;2023-09-19T01:55:44;28.50;50.10
24730;DHT22;12832;52.392;13.066;2023-09-19T01:58:24;28.50;50.10
24730;DHT22;12832;52.392;13.066;2023-09-19T02:00:55;28.50;50.10
24730;DHT22;12832;52.392;13.066;2023-09-19T02:03:24;28.50;50.10
24730;DHT22;12832;52.392;13.066;2023-09-19T02:05:51;28.50;50.10
24730;DHT22;12832;52.392;13.066;2023-09-19T02:08:20;28.50;50.10
24730;DHT22;12832;52.392;13.066;2023-09-19T02:10:48;28.50;50.10
24730;DHT22;12832;52.392;13.066;2023-09-19T02:13:18;28.50;50.10
24730;DHT22;12832;52.392;13.066;2023-09-19T02:15:46;28.50;50.20
24730;DHT22;12832;52.392;13.066;2023-09-19T02:18:13;28.40;50.20
24730;DHT22;12832;52.392;13.066;2023-09-19T02:20:40;28.50;50.20
24730;DHT22;12832;52.392;13.066;2023-09-19T02:23:06;28.40;50.20
24730;DHT22;12832;52.392;13.066;2023-09-19T02:25:34;28.50;50.20
24730;DHT22;12832;52.392;13.066;2023-09-19T02:28:01;28.40;50.30
24730;DHT22;12832;52.392;13.066;2023-09-19T02:30:29;28.50;50.30
24730;DHT22;12832;52.392;13.066;2023-09-19T02:32:56;28.50;50.30
24730;DHT22;12832;52.392;13.066;2023-09-19T02:35:22;28.40;50.30
24730;DHT22;12832;52.392;13.066;2023-09-19T02:37:48;28.50;50.40
24730;DHT22;12832;52.392;13.066;2023-09-19T02:40:15;28.40;50.40
24730;DHT22;12832;52.392;13.066;2023-09-19T02:42:55;28.40;50.40
24730;DHT22;12832;52.392;13.066;2023-09-19T02:45:21;28.40;50.40
24730;DHT22;12832;52.392;13.066;2023-09-19T02:47:49;28.40;50.40
24730;DHT22;12832;52.392;13.066;2023-09-19T02:50:16;28.40;50.40
24730;DHT22;12832;52.392;13.066;2023-09-19T02:52:43;28.40;50.40
24730;DHT22;12832;52.392;13.066;2023-09-19T02:55:12;28.40;50.40
24730;DHT22;12832;52.392;13.066;2023-09-19T02:57:55;28.40;50.40
24730;DHT22;12832;52.392;13.066;2023-09-19T03:00:22;28.40;50.40
24730;DHT22;12832;52.392;13.066;2023-09-19T03:02:58;28.40;50.40
24730;DHT22;12832;52.392;13.066;2023-09-19T03:05:25;28.40;50.40
24730;DHT22;12832;52.392;13.066;2023-09-19T03:07:52;28.30;50.30
24730;DHT22;12832;52.392;13.066;2023-09-19T03:10:19;28.40;50.40
24730;DHT22;12832;52.392;13.066;2023-09-19T03:12:46;28.30;50.40
24730;DHT22;12832;52.392;13.066;2023-09-19T03:15:14;28.30;50.40
24730;DHT22;12832;52.392;13.066;2023-09-19T03:17:48;28.30;50.40
24730;DHT22;12832;52.392;13.066;2023-09-19T03:20:15;28.30;50.40
24730;DHT22;12832;52.392;13.066;2023-09-19T03:22:45;28.30;50.40
24730;DHT22;12832;52.392;13.066;2023-09-19T03:25:11;28.30;50.40
24730;DHT22;12832;52.392;13.066;2023-09-19T03:27:39;28.30;50.30
24730;DHT22;12832;52.392;13.066;2023-09-19T03:30:06;28.30;50.30
24730;DHT22;12832;52.392;13.066;2023-09-19T03:32:36;28.30;50.40
24730;DHT22;12832;52.392;13.066;2023-09-19T03:35:02;28.30;50.40
24730;DHT22;12832;52.392;13.066;2023-09-19T03:37:31;28.30;50.40
24730;DHT22;12832;52.392;13.066;2023-09-19T03:39:59;28.30;50.30
24730;DHT22;12832;52.392;13.066;2023-09-19T03:42:25;28.30;50.30
24730;DHT22;12832;52.392;13.066;2023-09-19T03:44:52;28.30;50.40
24730;DHT22;12832;52.392;13.066;2023-09-19T03:47:20;28.20;50.40
24730;DHT22;12832;52.392;13.066;2023-09-19T03:49:47;28.30;50.30
24730;DHT22;12832;52.392;13.066;2023-09-19T03:52:13;28.20;50.30
24730;DHT22;12832;52.392;13.066;2023-09-19T03:54:40;28.20;50.30
24730;DHT22;12832;52.392;13.066;2023-09-19T03:57:07;28.20;50.20
24730;DHT22;12832;52.392;13.066;2023-09-19T03:59:33;28.20;50.20
24730;DHT22;12832;52.392;13.066;2023-09-19T04:02:01;28.20;50.20
24730;DHT22;12832;52.392;13.066;2023-09-19T04:04:28;28.20;50.30
24730;DHT22;12832;52.392;13.066;2023-09-19T04:06:55;28.20;50.20
24730;DHT22;12832;52.392;13.066;2023-09-19T04:09:21;28.20;50.20
24730;DHT22;12832;52.392;13.066;2023-09-19T04:11:47;28.20;50.20
24730;DHT22;12832;52.392;13.066;2023-09-19T04:14:16;28.30;50.20
24730;DHT22;12832;52.392;13.066;2023-09-19T04:16:42;28.20;50.10
24730;DHT22;12832;52.392;13.066;2023-09-19T04:19:08;28.20;50.10
24730;DHT22;12832;52.392;13.066;2023-09-19T04:21:34;28.20;50.10
24730;DHT22;12832;52.392;13.066;2023-09-19T04:24:01;28.20;49.90
24730;DHT22;12832;52.392;13.066;2023-09-19T04:26:27;28.20;49.90
24730;DHT22;12832;52.392;13.066;2023-09-19T04:28:53;28.20;49.90
24730;DHT22;12832;52.392;13.066;2023-09-19T04:31:19;28.20;49.90
24730;DHT22;12832;52.392;13.066;2023-09-19T04:33:46;28.20;49.90
24730;DHT22;12832;52.392;13.066;2023-09-19T04:36:12;28.20;49.90
24730;DHT22;12832;52.392;13.066;2023-09-19T04:38:59;28.20;49.90
24730;DHT22;12832;52.392;13.066;2023-09-19T04:41:25;28.20;49.90
24730;DHT22;12832;52.392;13.066;2023-09-19T04:43:51;28.10;49.90
24730;DHT22;12832;52.392;13.066;2023-09-19T04:46:17;28.20;49.90
24730;DHT22;12832;52.392;13.066;2023-09-19T04:48:44;28.10;49.90
24730;DHT22;12832;52.392;13.066;2023-09-19T04:51:10;28.20;49.90
24730;DHT22;12832;52.392;13.066;2023-09-19T04:53:36;28.10;49.90
24730;DHT22;12832;52.392;13.066;2023-09-19T04:56:03;28.20;49.80
24730;DHT22;12832;52.392;13.066;2023-09-19T04:58:29;28.20;49.80
24730;DHT22;12832;52.392;13.066;2023-09-19T05:00:56;28.10;49.80
24730;DHT22;12832;52.392;13.066;2023-09-19T05:03:22;28.10;49.20
24730;DHT22;12832;52.392;13.066;2023-09-19T05:05:48;28.00;48.60
24730;DHT22;12832;52.392;13.066;2023-09-19T05:08:15;28.00;48.80
24730;DHT22;12832;52.392;13.066;2023-09-19T05:10:41;27.90;48.80
24730;DHT22;12832;52.392;13.066;2023-09-19T05:13:08;27.90;48.90
24730;DHT22;12832;52.392;13.066;2023-09-19T05:15:34;27.90;49.00
24730;DHT22;12832;52.392;13.066;2023-09-19T05:18:01;27.80;48.90
24730;DHT22;12832;52.392;13.066;2023-09-19T05:20:28;27.80;49.00
24730;DHT22;12832;52.392;13.066;2023-09-19T05:23:03;27.80;49.00
24730;DHT22;12832;52.392;13.066;2023-09-19T05:25:32;27.80;49.00
24730;DHT22;12832;52.392;13.066;2023-09-19T05:27:59;27.70;49.00
24730;DHT22;12832;52.392;13.066;2023-09-19T05:30:26;27.70;49.00
24730;DHT22;12832;52.392;13.066;2023-09-19T05:32:55;27.70;49.10
24730;DHT22;12832;52.392;13.066;2023-09-19T05:35:23;27.70;49.10
24730;DHT22;12832;52.392;13.066;2023-09-19T05:37:53;27.60;49.00
24730;DHT22;12832;52.392;13.066;2023-09-19T05:40:21;27.60;49.10
24730;DHT22;12832;52.392;13.066;2023-09-19T05:42:47;27.60;49.00
24730;DHT22;12832;52.392;13.066;2023-09-19T05:45:14;27.60;49.00
24730;DHT22;12832;52.392;13.066;2023-09-19T05:47:40;27.60;49.10
24730;DHT22;12832;52.392;13.066;2023-09-19T05:50:10;27.60;49.10
24730;DHT22;12832;52.392;13.066;2023-09-19T05:52:37;27.60;49.10
24730;DHT22;12832;52.392;13.066;2023-09-19T05:55:04;27.60;48.90
24730;DHT22;12832;52.392;13.066;2023-09-19T05:57:36;27.60;48.90
24730;DHT22;12832;52.392;13.066;2023-09-19T06:00:06;27.60;48.90
24730;DHT22;12832;52.392;13.066;2023-09-19T06:02:37;27.50;48.80
24730;DHT22;12832;52.392;13.066;2023-09-19T06:05:07;27.50;48.80
24730;DHT22;12832;52.392;13.066;2023-09-19T06:07:37;27.50;48.90
24730;DHT22;12832;52.392;13.066;2023-09-19T06:10:04;27.50;48.90
24730;DHT22;12832;52.392;13.066;2023-09-19T06:12:41;27.50;48.80
24730;DHT22;12832;52.392;13.066;2023-09-19T06:15:12;27.50;48.70
24730;DHT22;12832;52.392;13.066;2023-09-19T06:17:50;27.50;48.70
24730;DHT22;12832;52.392;13.066;2023-09-19T06:20:17;27.50;48.60
24730;DHT22;12832;52.392;13.066;2023-09-19T06:22:45;27.50;48.70
24730;DHT22;12832;52.392;13.066;2023-09-19T06:25:13;27.50;48.60
24730;DHT22;12832;52.392;13.066;2023-09-19T06:27:49;27.50;49.20
24730;DHT22;12832;52.392;13.066;2023-09-19T06:30:18;27.50;48.40
24730;DHT22;12832;52.392;13.066;2023-09-19T06:32:44;27.50;48.40
24730;DHT22;12832;52.392;13.066;2023-09-19T06:35:12;27.50;48.40
24730;DHT22;12832;52.392;13.066;2023-09-19T06:37:39;27.50;48.40
24730;DHT22;12832;52.392;13.066;2023-09-19T06:40:11;27.50;48.50
24730;DHT22;12832;52.392;13.066;2023-09-19T06:42:45;27.50;48.40
24730;DHT22;12832;52.392;13.066;2023-09-19T06:45:12;27.40;48.30
24730;DHT22;12832;52.392;13.066;2023-09-19T06:47:39;27.40;48.30
24730;DHT22;12832;52.392;13.066;2023-09-19T06:50:06;27.40;48.40
24730;DHT22;12832;52.392;13.066;2023-09-19T06:52:35;27.40;48.40
24730;DHT22;12832;52.392;13.066;2023-09-19T06:55:01;27.40;48.40
24730;DHT22;12832;52.392;13.066;2023-09-19T06:57:29;27.40;48.40
24730;DHT22;12832;52.392;13.066;2023-09-19T06:59:56;27.40;48.30
24730;DHT22;12832;52.392;13.066;2023-09-19T07:02:22;27.40;48.30
24730;DHT22;12832;52.392;13.066;2023-09-19T07:04:49;27.40;48.30
24730;DHT22;12832;52.392;13.066;2023-09-19T07:07:16;27.40;48.30
24730;DHT22;12832;52.392;13.066;2023-09-19T07:09:42;27.40;48.40
24730;DHT22;12832;52.392;13.066;2023-09-19T07:12:08;27.40;48.40
24730;DHT22;12832;52.392;13.066;2023-09-19T07:14:34;27.40;48.40
24730;DHT22;12832;52.392;13.066;2023-09-19T07:17:00;27.40;48.30
24730;DHT22;12832;52.392;13.066;2023-09-19T07:19:27;27.40;48.30
24730;DHT22;12832;52.392;13.066;2023-09-19T07:21:57;27.40;48.30
24730;DHT22;12832;52.392;13.066;2023-09-19T07:24:25;27.40;48.20
24730;DHT22;12832;52.392;13.066;2023-09-19T07:26:53;27.40;48.10
24730;DHT22;12832;52.392;13.066;2023-09-19T07:29:20;27.40;48.10
24730;DHT22;12832;52.392;13.066;2023-09-19T07:31:46;27.40;48.10
24730;DHT22;12832;52.392;13.066;2023-09-19T07:34:13;27.40;48.10
24730;DHT22;12832;52.392;13.066;2023-09-19T07:36:40;27.40;48.10
24730;DHT22;12832;52.392;13.066;2023-09-19T07:39:08;27.40;48.00
24730;DHT22;12832;52.392;13.066;2023-09-19T07:41:48;27.30;47.90
24730;DHT22;12832;52.392;13.066;2023-09-19T07:44:16;27.40;47.90
24730;DHT22;12832;52.392;13.066;2023-09-19T07:46:43;27.30;47.80
24730;DHT22;12832;52.392;13.066;2023-09-19T07:49:10;27.30;47.90
24730;DHT22;12832;52.392;13.066;2023-09-19T07:51:36;27.30;47.90
24730;DHT22;12832;52.392;13.066;2023-09-19T07:54:03;27.30;47.90
24730;DHT22;12832;52.392;13.066;2023-09-19T07:56:30;27.30;47.80
24730;DHT22;12832;52.392;13.066;2023-09-19T07:58:57;27.30;47.80
24730;DHT22;12832;52.392;13.066;2023-09-19T08:01:25;27.30;47.70
24730;DHT22;12832;52.392;13.066;2023-09-19T08:03:53;27.30;47.60
24730;DHT22;12832;52.392;13.066;2023-09-19T08:06:19;27.30;47.60
24730;DHT22;12832;52.392;13.066;2023-09-19T08:08:46;27.30;47.60
24730;DHT22;12832;52.392;13.066;2023-09-19T08:11:12;27.30;47.50
24730;DHT22;12832;52.392;13.066;2023-09-19T08:13:39;27.30;47.50
24730;DHT22;12832;52.392;13.066;2023-09-19T08:16:18;27.30;47.50
24730;DHT22;12832;52.392;13.066;2023-09-19T08:18:49;27.30;47.40
24730;DHT22;12832;52.392;13.066;2023-09-19T08:21:24;27.30;47.40
24730;DHT22;12832;52.392;13.066;2023-09-19T08:23:51;27.30;47.30
24730;DHT22;12832;52.392;13.066;2023-09-19T08:26:18;27.30;47.30
24730;DHT22;12832;52.392;13.066;2023-09-19T08:28:45;27.30;47.30
24730;DHT22;12832;52.392;13.066;2023-09-19T08:31:11;27.30;47.30
24730;DHT22;12832;52.392;13.066;2023-09-19T08:33:38;27.30;47.20
24730;DHT22;12832;52.392;13.066;2023-09-19T08:36:06;27.30;47.10
24730;DHT22;12832;52.392;13.066;2023-09-19T08:38:34;27.30;47.10
24730;DHT22;12832;52.392;13.066;2023-09-19T08:41:04;27.30;47.00
24730;DHT22;12832;52.392;13.066;2023-09-19T08:43:32;27.30;47.00
24730;DHT22;12832;52.392;13.066;2023-09-19T08:46:14;27.20;46.90
24730;DHT22;12832;52.392;13.066;2023-09-19T08:48:57;27.30;47.00
24730;DHT22;12832;52.392;13.066;2023-09-19T08:51:33;27.30;46.90
24730;DHT22;12832;52.392;13.066;2023-09-19T08:54:08;27.30;46.80
24730;DHT22;12832;52.392;13.066;2023-09-19T08:56:40;27.20;46.80
24730;DHT22;12832;52.392;13.066;2023-09-19T08:59:08;27.20;46.80
24730;DHT22;12832;52.392;13.066;2023-09-19T09:01:35;27.30;46.80
24730;DHT22;12832;52.392;13.066;2023-09-19T09:04:02;27.20;47.40
24730;DHT22;12832;52.392;13.066;2023-09-19T09:06:29;27.20;46.60
24730;DHT22;12832;52.392;13.066;2023-09-19T09:08:58;27.30;46.60
24730;DHT22;12832;52.392;13.066;2023-09-19T09:11:25;27.20;46.50
24730;DHT22;12832;52.392;13.066;2023-09-19T09:13:51;27.20;46.40
24730;DHT22;12832;52.392;13.066;2023-09-19T09:16:18;27.20;46.50
24730;DHT22;12832;52.392;13.066;2023-09-19T09:18:45;27.20;46.40
24730;DHT22;12832;52.392;13.066;2023-09-19T09:21:12;27.20;46.40
24730;DHT22;12832;52.392;13.066;2023-09-19T09:23:40;27.20;46.30
24730;DHT22;12832;52.392;13.066;2023-09-19T09:26:07;27.20;46.30
24730;DHT22;12832;52.392;13.066;2023-09-19T09:28:35;27.20;46.30
24730;DHT22;12832;52.392;13.066;2023-09-19T09:31:05;27.20;46.20
24730;DHT22;12832;52.392;13.066;2023-09-19T09:33:36;27.20;46.30
24730;DHT22;12832;52.392;13.066;2023-09-19T09:36:03;27.20;46.30
24730;DHT22;12832;52.392;13.066;2023-09-19T09:38:44;27.20;46.20
24730;DHT22;12832;52.392;13.066;2023-09-19T09:41:11;27.20;46.00
24730;DHT22;12832;52.392;13.066;2023-09-19T09:43:42;27.20;46.00
24730;DHT22;12832;52.392;13.066;2023-09-19T09:48:59;27.10;46.00
24730;DHT22;12832;52.392;13.066;2023-09-19T09:52:04;27.20;46.10
24730;DHT22;12832;52.392;13.066;2023-09-19T09:55:01;27.20;45.90
24730;DHT22;12832;52.392;13.066;2023-09-19T09:57:31;27.20;45.80
24730;DHT22;12832;52.392;13.066;2023-09-19T09:59:59;27.20;45.80
24730;DHT22;12832;52.392;13.066;2023-09-19T10:02:45;27.20;45.70
24730;DHT22;12832;52.392;13.066;2023-09-19T10:05:17;27.20;45.90
24730;DHT22;12832;52.392;13.066;2023-09-19T10:07:47;27.20;45.80
24730;DHT22;12832;52.392;13.066;2023-09-19T10:10:52;27.20;45.70
24730;DHT22;12832;52.392;13.066;2023-09-19T10:13:19;27.20;45.60
24730;DHT22;12832;52.392;13.066;2023-09-19T10:15:51;27.20;45.70
24730;DHT22;12832;52.392;13.066;2023-09-19T10:18:22;27.20;45.60
24730;DHT22;12832;52.392;13.066;2023-09-19T10:20:49;27.10;45.50
24730;DHT22;12832;52.392;13.066;2023-09-19T10:23:21;27.20;45.50
24730;DHT22;12832;52.392;13.066;2023-09-19T10:25:51;27.20;45.40
24730;DHT22;12832;52.392;13.066;2023-09-19T10:28:19;27.20;45.20
24730;DHT22;12832;52.392;13.066;2023-09-19T10:30:49;27.20;45.30
24730;DHT22;12832;52.392;13.066;2023-09-19T10:33:19;27.10;45.20
24730;DHT22;12832;52.392;13.066;2023-09-19T10:35:50;27.10;45.20
24730;DHT22;12832;52.392;13.066;2023-09-19T10:38:27;27.10;45.30
24730;DHT22;12832;52.392;13.066;2023-09-19T10:40:56;27.10;45.30
24730;DHT22;12832;52.392;13.066;2023-09-19T10:43:30;27.10;45.30
24730;DHT22;12832;52.392;13.066;2023-09-19T10:46:03;27.10;45.30
24730;DHT22;12832;52.392;13.066;2023-09-19T10:48:33;27.10;45.20
24730;DHT22;12832;52.392;13.066;2023-09-19T10:51:09;27.10;45.10
24730;DHT22;12832;52.392;13.066;2023-09-19T10:53:50;27.10;45.10
24730;DHT22;12832;52.392;13.066;2023-09-19T10:56:26;27.20;45.10
24730;DHT22;12832;52.392;13.066;2023-09-19T10:59:19;27.10;45.00
24730;DHT22;12832;52.392;13.066;2023-09-19T11:01:50;27.10;44.90
24730;DHT22;12832;52.392;13.066;2023-09-19T11:04:30;27.10;44.80
24730;DHT22;12832;52.392;13.066;2023-09-19T11:07:15;27.10;44.90
24730;DHT22;12832;52.392;13.066;2023-09-19T11:09:52;27.10;44.90
24730;DHT22;12832;52.392;13.066;2023-09-19T11:14:57;27.10;44.70
24730;DHT22;12832;52.392;13.066;2023-09-19T11:17:40;27.10;44.70
24730;DHT22;12832;52.392;13.066;2023-09-19T11:30:42;27.10;44.40
24730;DHT22;12832;52.392;13.066;2023-09-19T11:33:26;27.10;44.40
24730;DHT22;12832;52.392;13.066;2023-09-19T11:43:47;27.10;44.10
24730;DHT22;12832;52.392;13.066;2023-09-19T11:46:14;27.10;43.90
24730;DHT22;12832;52.392;13.066;2023-09-19T11:48:47;27.10;43.90
24730;DHT22;12832;52.392;13.066;2023-09-19T11:51:16;27.10;43.80
24730;DHT22;12832;52.392;13.066;2023-09-19T11:53:58;27.10;43.80
24730;DHT22;12832;52.392;13.066;2023-09-19T11:56:26;27.10;43.70
24730;DHT22;12832;52.392;13.066;2023-09-19T11:58:57;27.10;43.70
24730;DHT22;12832;52.392;13.066;2023-09-19T12:03:57;27.10;43.50
24730;DHT22;12832;52.392;13.066;2023-09-19T12:06:26;27.10;43.50
24730;DHT22;12832;52.392;13.066;2023-09-19T12:08:53;27.10;43.60
24730;DHT22;12832;52.392;13.066;2023-09-19T12:11:22;27.10;43.60
24730;DHT22;12832;52.392;13.066;2023-09-19T12:13:49;27.10;43.60
24730;DHT22;12832;52.392;13.066;2023-09-19T12:16:18;27.10;43.70
24730;DHT22;12832;52.392;13.066;2023-09-19T12:18:48;27.10;43.50
24730;DHT22;12832;52.392;13.066;2023-09-19T12:24:11;27.10;43.30
24730;DHT22;12832;52.392;13.066;2023-09-19T12:26:43;27.10;43.30
24730;DHT22;12832;52.392;13.066;2023-09-19T12:29:19;27.10;43.30
24730;DHT22;12832;52.392;13.066;2023-09-19T12:31:50;27.10;43.30
24730;DHT22;12832;52.392;13.066;2023-09-19T12:36:49;27.10;43.30
24730;DHT22;12832;52.392;13.066;2023-09-19T12:39:24;27.10;43.20
24730;DHT22;12832;52.392;13.066;2023-09-19T12:41:52;27.10;43.30
24730;DHT22;12832;52.392;13.066;2023-09-19T12:44:19;27.10;43.20
24730;DHT22;12832;52.392;13.066;2023-09-19T12:46:46;27.10;43.20
24730;DHT22;12832;52.392;13.066;2023-09-19T12:49:18;27.10;43.00
24730;DHT22;12832;52.392;13.066;2023-09-19T12:51:48;27.10;42.90
24730;DHT22;12832;52.392;13.066;2023-09-19T12:54:14;27.10;42.90
24730;DHT22;12832;52.392;13.066;2023-09-19T12:56:43;27.10;42.90
24730;DHT22;12832;52.392;13.066;2023-09-19T12:59:14;27.10;42.90
24730;DHT22;12832;52.392;13.066;2023-09-19T13:01:42;27.10;42.90
24730;DHT22;12832;52.392;13.066;2023-09-19T13:04:13;27.00;42.80
24730;DHT22;12832;52.392;13.066;2023-09-19T13:06:45;27.10;43.00
24730;DHT22;12832;52.392;13.066;2023-09-19T13:09:12;27.10;42.80
24730;DHT22;12832;52.392;13.066;2023-09-19T13:11:39;27.10;42.70
24730;DHT22;12832;52.392;13.066;2023-09-19T13:14:18;27.10;42.60
24730;DHT22;12832;52.392;13.066;2023-09-19T13:17:04;27.10;42.60
24730;DHT22;12832;52.392;13.066;2023-09-19T13:19:43;27.10;42.50
24730;DHT22;12832;52.392;13.066;2023-09-19T13:22:40;27.10;42.60
24730;DHT22;12832;52.392;13.066;2023-09-19T13:25:09;27.10;42.50
24730;DHT22;12832;52.392;13.066;2023-09-19T13:27:41;27.10;42.60
24730;DHT22;12832;52.392;13.066;2023-09-19T13:30:08;27.10;42.60
24730;DHT22;12832;52.392;13.066;2023-09-19T13:32:34;27.10;42.60
24730;DHT22;12832;52.392;13.066;2023-09-19T13:35:00;27.10;42.50
24730;DHT22;12832;52.392;13.066;2023-09-19T13:37:27;27.10;42.50
24730;DHT22;12832;52.392;13.066;2023-09-19T13:39:53;27.10;42.40
24730;DHT22;12832;52.392;13.066;2023-09-19T13:42:19;27.10;42.30
24730;DHT22;12832;52.392;13.066;2023-09-19T13:44:48;27.00;42.20
24730;DHT22;12832;52.392;13.066;2023-09-19T13:47:14;27.10;42.30
24730;DHT22;12832;52.392;13.066;2023-09-19T13:49:42;27.10;42.30
24730;DHT22;12832;52.392;13.066;2023-09-19T13:52:09;27.10;42.30
24730;DHT22;12832;52.392;13.066;2023-09-19T13:54:35;27.10;42.20
24730;DHT22;12832;52.392;13.066;2023-09-19T13:57:01;27.10;42.20
24730;DHT22;12832;52.392;13.066;2023-09-19T13:59:27;27.10;42.20
24730;DHT22;12832;52.392;13.066;2023-09-19T14:01:54;27.10;42.10
24730;DHT22;12832;52.392;13.066;2023-09-19T14:04:21;27.10;42.20
24730;DHT22;12832;52.392;13.066;2023-09-19T14:06:48;27.10;42.10
24730;DHT22;12832;52.392;13.066;2023-09-19T14:09:14;27.10;42.10
24730;DHT22;12832;52.392;13.066;2023-09-19T14:11:42;27.10;42.10
24730;DHT22;12832;52.392;13.066;2023-09-19T14:14:12;27.10;42.10
24730;DHT22;12832;52.392;13.066;2023-09-19T14:16:38;27.10;42.20
24730;DHT22;12832;52.392;13.066;2023-09-19T14:19:06;27.10;42.10
24730;DHT22;12832;52.392;13.066;2023-09-19T14:21:34;27.10;42.10
24730;DHT22;12832;52.392;13.066;2023-09-19T14:24:02;27.10;42.10
24730;DHT22;12832;52.392;13.066;2023-09-19T14:26:29;27.10;42.10
24730;DHT22;12832;52.392;13.066;2023-09-19T14:28:55;27.10;42.00
24730;DHT22;12832;52.392;13.066;2023-09-19T14:31:21;27.10;42.00
24730;DHT22;12832;52.392;13.066;2023-09-19T14:33:56;27.10;42.10
24730;DHT22;12832;52.392;13.066;2023-09-19T14:36:22;27.10;42.00
24730;DHT22;12832;52.392;13.066;2023-09-19T14:38:55;27.10;42.00
24730;DHT22;12832;52.392;13.066;2023-09-19T14:41:21;27.10;42.00
24730;DHT22;12832;52.392;13.066;2023-09-19T14:43:49;27.00;41.80
24730;DHT22;12832;52.392;13.066;2023-09-19T14:46:15;27.00;41.90
24730;DHT22;12832;52.392;13.066;2023-09-19T14:48:42;27.00;41.90
24730;DHT22;12832;52.392;13.066;2023-09-19T14:51:09;27.00;41.90
24730;DHT22;12832;52.392;13.066;2023-09-19T14:53:35;27.10;42.00
24730;DHT22;12832;52.392;13.066;2023-09-19T14:56:05;27.00;42.00
24730;DHT22;12832;52.392;13.066;2023-09-19T14:58:31;27.00;41.90
24730;DHT22;12832;52.392;13.066;2023-09-19T15:01:06;27.10;42.00
24730;DHT22;12832;52.392;13.066;2023-09-19T15:03:33;27.10;42.00
24730;DHT22;12832;52.392;13.066;2023-09-19T15:06:01;27.00;42.00
24730;DHT22;12832;52.392;13.066;2023-09-19T15:08:28;27.00;41.70
24730;DHT22;12832;52.392;13.066;2023-09-19T15:10:54;27.10;41.50
24730;DHT22;12832;52.392;13.066;2023-09-19T15:13:31;27.00;41.40
24730;DHT22;12832;52.392;13.066;2023-09-19T15:16:05;27.00;41.30
24730;DHT22;12832;52.392;13.066;2023-09-19T15:18:43;27.10;41.20
24730;DHT22;12832;52.392;13.066;2023-09-19T15:21:11;27.00;41.20
24730;DHT22;12832;52.392;13.066;2023-09-19T15:23:39;27.00;41.20
24730;DHT22;12832;52.392;13.066;2023-09-19T15:26:11;27.00;41.10
24730;DHT22;12832;52.392;13.066;2023-09-19T15:28:38;27.00;41.10
24730;DHT22;12832;52.392;13.066;2023-09-19T15:31:10;27.00;41.00
24730;DHT22;12832;52.392;13.066;2023-09-19T15:33:37;27.00;41.00
24730;DHT22;12832;52.392;13.066;2023-09-19T15:36:11;27.00;41.00
24730;DHT22;12832;52.392;13.066;2023-09-19T15:41:34;27.00;40.90
24730;DHT22;12832;52.392;13.066;2023-09-19T15:44:01;27.00;40.90
24730;DHT22;12832;52.392;13.066;2023-09-19T15:46:30;27.00;40.80
24730;DHT22;12832;52.392;13.066;2023-09-19T15:48:57;27.00;40.80
24730;DHT22;12832;52.392;13.066;2023-09-19T15:51:24;27.00;40.80
24730;DHT22;12832;52.392;13.066;2023-09-19T15:53:52;27.00;40.90
24730;DHT22;12832;52.392;13.066;2023-09-19T15:56:20;26.90;40.90
24730;DHT22;12832;52.392;13.066;2023-09-19T15:58:54;26.90;40.80
24730;DHT22;12832;52.392;13.066;2023-09-19T16:01:22;27.00;40.70
24730;DHT22;12832;52.392;13.066;2023-09-19T16:03:50;26.90;40.70
24730;DHT22;12832;52.392;13.066;2023-09-19T16:06:20;26.90;41.30
24730;DHT22;12832;52.392;13.066;2023-09-19T16:08:51;27.00;40.70
24730;DHT22;12832;52.392;13.066;2023-09-19T16:11:18;26.90;40.60
24730;DHT22;12832;52.392;13.066;2023-09-19T16:13:51;26.90;40.50
24730;DHT22;12832;52.392;13.066;2023-09-19T16:16:19;26.90;41.20